sensor_id;sensor_type;location;lat;lon;timestamp;temperature;humidity
10901;DHT22;5503;53.208;10.392;2023-02-01T00:00:42;6.40;9.00
10901;DHT22;5503;53.208;10.392;2023-02-01T00:03:09;8.60;11.10
10901;DHT22;5503;53.208;10.392;2023-02-01T00:05:38;5.30;7.30
10901;DHT22;5503;53.208;10.392;2023-02-01T00:08:05;6.40;6.30
10901;DHT22;5503;53.208;10.392;2023-02-01T00:10:32;6.40;4.60
10901;DHT22;5503;53.208;10.392;2023-02-01T00:13:00;6.40;3.70
10901;DHT22;5503;53.208;10.392;2023-02-01T00:15:27;6.40;5.60
10901;DHT22;5503;53.208;10.392;2023-02-01T00:17:57;6.30;9.50
10901;DHT22;5503;53.208;10.392;2023-02-01T00:20:30;6.30;9.80
10901;DHT22;5503;53.208;10.392;2023-02-01T00:22:58;6.30;13.30
10901;DHT22;5503;53.208;10.392;2023-02-01T00:25:34;6.40;10.90
10901;DHT22;5503;53.208;10.392;2023-02-01T00:28:03;6.50;10.80
10901;DHT22;5503;53.208;10.392;2023-02-01T00:30:30;6.50;9.50
10901;DHT22;5503;53.208;10.392;2023-02-01T00:32:57;6.50;10.10
10901;DHT22;5503;53.208;10.392;2023-02-01T00:35:24;6.50;12.90
10901;DHT22;5503;53.208;10.392;2023-02-01T00:37:51;8.90;12.40
10901;DHT22;5503;53.208;10.392;2023-02-01T00:40:18;6.60;9.70
10901;DHT22;5503;53.208;10.392;2023-02-01T00:42:45;6.50;10.20
10901;DHT22;5503;53.208;10.392;2023-02-01T00:45:13;6.50;12.70
10901;DHT22;5503;53.208;10.392;2023-02-01T00:47:40;6.60;6.80
10901;DHT22;5503;53.208;10.392;2023-02-01T00:50:09;6.50;7.50
10901;DHT22;5503;53.208;10.392;2023-02-01T00:52:36;6.40;8.70
10901;DHT22;5503;53.208;10.392;2023-02-01T00:55:04;6.70;5.30
10901;DHT22;5503;53.208;10.392;2023-02-01T00:57:31;6.70;2.30
10901;DHT22;5503;53.208;10.392;2023-02-01T01:00:03;6.70;5.70
10901;DHT22;5503;53.208;10.392;2023-02-01T01:02:31;6.60;3.40
10901;DHT22;5503;53.208;10.392;2023-02-01T01:05:01;6.80;2.60
10901;DHT22;5503;53.208;10.392;2023-02-01T01:07:28;6.80;1.00
10901;DHT22;5503;53.208;10.392;2023-02-01T01:09:55;6.80;1.10
10901;DHT22;5503;53.208;10.392;2023-02-01T01:12:25;7.00;1.00
10901;DHT22;5503;53.208;10.392;2023-02-01T01:14:52;6.80;1.00
10901;DHT22;5503;53.208;10.392;2023-02-01T01:17:19;6.80;2.90
10901;DHT22;5503;53.208;10.392;2023-02-01T01:19:47;6.70;4.90
10901;DHT22;5503;53.208;10.392;2023-02-01T01:22:17;6.80;1.00
10901;DHT22;5503;53.208;10.392;2023-02-01T01:24:44;6.80;2.90
10901;DHT22;5503;53.208;10.392;2023-02-01T01:27:11;6.90;1.00
10901;DHT22;5503;53.208;10.392;2023-02-01T01:29:41;7.00;1.00
10901;DHT22;5503;53.208;10.392;2023-02-01T01:32:10;7.00;1.00
10901;DHT22;5503;53.208;10.392;2023-02-01T01:34:38;7.00;1.00
10901;DHT22;5503;53.208;10.392;2023-02-01T01:37:09;6.90;1.00
10901;DHT22;5503;53.208;10.392;2023-02-01T01:39:36;7.00;1.20
10901;DHT22;5503;53.208;10.392;2023-02-01T01:42:03;7.20;1.00
10901;DHT22;5503;53.208;10.392;2023-02-01T01:44:57;7.20;1.00
10901;DHT22;5503;53.208;10.392;2023-02-01T01:47:24;7.00;1.00
10901;DHT22;5503;53.208;10.392;2023-02-01T01:49:57;6.90;2.50
10901;DHT22;5503;53.208;10.392;2023-02-01T01:52:28;6.80;2.60
10901;DHT22;5503;53.208;10.392;2023-02-01T01:54:59;6.70;3.60
10901;DHT22;5503;53.208;10.392;2023-02-01T01:57:31;6.70;6.70
10901;DHT22;5503;53.208;10.392;2023-02-01T02:00:03;6.80;2.90
10901;DHT22;5503;53.208;10.392;2023-02-01T02:02:33;6.80;3.70
10901;DHT22;5503;53.208;10.392;2023-02-01T02:05:01;7.80;3.40
10901;DHT22;5503;53.208;10.392;2023-02-01T02:07:33;6.80;4.30
10901;DHT22;5503;53.208;10.392;2023-02-01T02:10:03;6.90;1.00
10901;DHT22;5503;53.208;10.392;2023-02-01T02:12:29;6.80;2.70
10901;DHT22;5503;53.208;10.392;2023-02-01T02:14:58;6.90;1.00
10901;DHT22;5503;53.208;10.392;2023-02-01T02:17:36;6.90;1.00
10901;DHT22;5503;53.208;10.392;2023-02-01T02:20:27;7.00;1.00
10901;DHT22;5503;53.208;10.392;2023-02-01T02:26:34;6.80;1.80
10901;DHT22;5503;53.208;10.392;2023-02-01T02:29:32;6.90;1.00
10901;DHT22;5503;53.208;10.392;2023-02-01T02:35:09;6.80;2.30
10901;DHT22;5503;53.208;10.392;2023-02-01T02:37:45;6.90;3.10
10901;DHT22;5503;53.208;10.392;2023-02-01T02:40:18;6.90;2.50
10901;DHT22;5503;53.208;10.392;2023-02-01T02:42:52;7.00;1.00
10901;DHT22;5503;53.208;10.392;2023-02-01T02:45:42;7.20;1.00
10901;DHT22;5503;53.208;10.392;2023-02-01T02:48:32;6.90;1.20
10901;DHT22;5503;53.208;10.392;2023-02-01T02:51:08;6.90;1.00
10901;DHT22;5503;53.208;10.392;2023-02-01T02:54:02;6.90;1.00
10901;DHT22;5503;53.208;10.392;2023-02-01T02:56:49;6.90;1.00
10901;DHT22;5503;53.208;10.392;2023-02-01T02:59:35;6.90;1.20
10901;DHT22;5503;53.208;10.392;2023-02-01T03:02:21;6.80;4.00
10901;DHT22;5503;53.208;10.392;2023-02-01T03:05:06;6.80;1.70
10901;DHT22;5503;53.208;10.392;2023-02-01T03:07:55;6.90;6.30
10901;DHT22;5503;53.208;10.392;2023-02-01T03:10:29;6.80;11.20
10901;DHT22;5503;53.208;10.392;2023-02-01T03:13:02;6.70;10.30
10901;DHT22;5503;53.208;10.392;2023-02-01T03:15:33;6.80;9.40
10901;DHT22;5503;53.208;10.392;2023-02-01T03:18:03;6.90;4.30
10901;DHT22;5503;53.208;10.392;2023-02-01T03:20:33;6.90;3.30
10901;DHT22;5503;53.208;10.392;2023-02-01T03:23:03;6.90;4.50
10901;DHT22;5503;53.208;10.392;2023-02-01T03:25:33;6.90;1.20
10901;DHT22;5503;53.208;10.392;2023-02-01T03:28:03;6.90;2.20
10901;DHT22;5503;53.208;10.392;2023-02-01T03:30:33;7.00;1.50
10901;DHT22;5503;53.208;10.392;2023-02-01T03:33:04;6.90;2.80
10901;DHT22;5503;53.208;10.392;2023-02-01T03:35:40;6.90;8.40
10901;DHT22;5503;53.208;10.392;2023-02-01T03:38:20;6.80;27.20
10901;DHT22;5503;53.208;10.392;2023-02-01T03:40:52;6.70;32.00
10901;DHT22;5503;53.208;10.392;2023-02-01T03:43:21;8.60;50.40
10901;DHT22;5503;53.208;10.392;2023-02-01T03:45:52;8.60;58.50
10901;DHT22;5503;53.208;10.392;2023-02-01T03:48:22;6.40;63.10
10901;DHT22;5503;53.208;10.392;2023-02-01T03:50:53;6.40;54.60
10901;DHT22;5503;53.208;10.392;2023-02-01T03:53:23;6.30;68.50
10901;DHT22;5503;53.208;10.392;2023-02-01T03:55:53;6.30;69.40
10901;DHT22;5503;53.208;10.392;2023-02-01T03:58:22;6.20;76.50
10901;DHT22;5503;53.208;10.392;2023-02-01T04:00:51;5.80;87.40
10901;DHT22;5503;53.208;10.392;2023-02-01T04:03:18;5.80;92.50
10901;DHT22;5503;53.208;10.392;2023-02-01T04:05:47;5.60;92.10
10901;DHT22;5503;53.208;10.392;2023-02-01T04:08:14;5.50;96.80
10901;DHT22;5503;53.208;10.392;2023-02-01T04:10:42;5.20;99.90
10901;DHT22;5503;53.208;10.392;2023-02-01T04:13:09;5.00;99.90
10901;DHT22;5503;53.208;10.392;2023-02-01T04:15:36;5.10;99.90
10901;DHT22;5503;53.208;10.392;2023-02-01T04:18:04;5.10;99.90
10901;DHT22;5503;53.208;10.392;2023-02-01T04:20:31;5.20;95.70
10901;DHT22;5503;53.208;10.392;2023-02-01T04:22:58;5.10;94.90
10901;DHT22;5503;53.208;10.392;2023-02-01T04:25:25;5.10;94.90
10901;DHT22;5503;53.208;10.392;2023-02-01T04:27:53;5.00;97.20
10901;DHT22;5503;53.208;10.392;2023-02-01T04:30:20;5.10;96.00
10901;DHT22;5503;53.208;10.392;2023-02-01T04:32:49;5.20;91.50
10901;DHT22;5503;53.208;10.392;2023-02-01T04:35:16;5.70;90.90
10901;DHT22;5503;53.208;10.392;2023-02-01T04:37:43;5.30;88.10
10901;DHT22;5503;53.208;10.392;2023-02-01T04:40:11;5.30;89.10
10901;DHT22;5503;53.208;10.392;2023-02-01T04:42:38;5.30;91.00
10901;DHT22;5503;53.208;10.392;2023-02-01T04:45:07;5.20;90.90
10901;DHT22;5503;53.208;10.392;2023-02-01T04:47:34;5.20;93.00
10901;DHT22;5503;53.208;10.392;2023-02-01T04:50:01;5.10;96.00
10901;DHT22;5503;53.208;10.392;2023-02-01T04:52:28;5.10;99.40
10901;DHT22;5503;53.208;10.392;2023-02-01T04:54:55;5.00;99.90
10901;DHT22;5503;53.208;10.392;2023-02-01T04:57:23;5.00;99.90
10901;DHT22;5503;53.208;10.392;2023-02-01T04:59:50;5.20;99.90
10901;DHT22;5503;53.208;10.392;2023-02-01T05:02:18;5.20;99.90
10901;DHT22;5503;53.208;10.392;2023-02-01T05:04:45;5.30;98.10
10901;DHT22;5503;53.208;10.392;2023-02-01T05:07:12;5.30;96.90
10901;DHT22;5503;53.208;10.392;2023-02-01T05:09:38;5.30;96.30
10901;DHT22;5503;53.208;10.392;2023-02-01T05:12:06;5.30;92.00
10901;DHT22;5503;53.208;10.392;2023-02-01T05:14:50;5.30;95.70
10901;DHT22;5503;53.208;10.392;2023-02-01T05:17:18;5.20;95.60
10901;DHT22;5503;53.208;10.392;2023-02-01T05:19:45;5.10;96.30
10901;DHT22;5503;53.208;10.392;2023-02-01T05:22:12;4.90;99.90
10901;DHT22;5503;53.208;10.392;2023-02-01T05:24:39;4.90;99.90
10901;DHT22;5503;53.208;10.392;2023-02-01T05:27:05;5.00;98.10
10901;DHT22;5503;53.208;10.392;2023-02-01T05:29:32;5.00;96.50
10901;DHT22;5503;53.208;10.392;2023-02-01T05:31:59;4.90;97.50
10901;DHT22;5503;53.208;10.392;2023-02-01T05:34:27;4.90;96.80
10901;DHT22;5503;53.208;10.392;2023-02-01T05:36:54;5.00;95.20
10901;DHT22;5503;53.208;10.392;2023-02-01T05:39:21;4.20;91.30
10901;DHT22;5503;53.208;10.392;2023-02-01T05:41:48;5.10;90.90
10901;DHT22;5503;53.208;10.392;2023-02-01T05:44:15;5.00;90.80
10901;DHT22;5503;53.208;10.392;2023-02-01T05:46:42;4.90;91.80
10901;DHT22;5503;53.208;10.392;2023-02-01T05:49:08;4.80;93.70
10901;DHT22;5503;53.208;10.392;2023-02-01T05:51:37;4.70;92.90
10901;DHT22;5503;53.208;10.392;2023-02-01T05:54:04;4.40;97.00
10901;DHT22;5503;53.208;10.392;2023-02-01T05:56:30;4.30;99.90
10901;DHT22;5503;53.208;10.392;2023-02-01T05:58:57;4.40;99.90
10901;DHT22;5503;53.208;10.392;2023-02-01T06:01:24;4.50;99.90
10901;DHT22;5503;53.208;10.392;2023-02-01T06:03:51;4.60;99.90
10901;DHT22;5503;53.208;10.392;2023-02-01T06:06:18;2.10;99.90
10901;DHT22;5503;53.208;10.392;2023-02-01T06:08:46;4.50;99.90
10901;DHT22;5503;53.208;10.392;2023-02-01T06:11:13;4.30;99.90
10901;DHT22;5503;53.208;10.392;2023-02-01T06:13:40;6.00;99.90
10901;DHT22;5503;53.208;10.392;2023-02-01T06:16:07;4.40;99.00
10901;DHT22;5503;53.208;10.392;2023-02-01T06:18:34;4.20;94.80
10901;DHT22;5503;53.208;10.392;2023-02-01T06:21:01;4.00;93.80
10901;DHT22;5503;53.208;10.392;2023-02-01T06:23:28;3.80;90.90
10901;DHT22;5503;53.208;10.392;2023-02-01T06:26:01;3.70;93.00
10901;DHT22;5503;53.208;10.392;2023-02-01T06:28:29;3.50;91.70
10901;DHT22;5503;53.208;10.392;2023-02-01T06:30:56;3.50;94.10
10901;DHT22;5503;53.208;10.392;2023-02-01T06:33:23;3.40;95.90
10901;DHT22;5503;53.208;10.392;2023-02-01T06:35:56;3.50;97.80
10901;DHT22;5503;53.208;10.392;2023-02-01T06:38:24;3.60;98.20
10901;DHT22;5503;53.208;10.392;2023-02-01T06:40:52;3.50;99.40
10901;DHT22;5503;53.208;10.392;2023-02-01T06:43:21;3.60;99.90
10901;DHT22;5503;53.208;10.392;2023-02-01T06:45:48;3.60;99.90
10901;DHT22;5503;53.208;10.392;2023-02-01T06:48:15;5.80;99.90
10901;DHT22;5503;53.208;10.392;2023-02-01T06:50:42;3.60;99.90
10901;DHT22;5503;53.208;10.392;2023-02-01T06:53:09;3.80;99.90
10901;DHT22;5503;53.208;10.392;2023-02-01T06:55:36;4.00;98.00
10901;DHT22;5503;53.208;10.392;2023-02-01T06:58:03;4.10;96.90
10901;DHT22;5503;53.208;10.392;2023-02-01T07:00:31;4.10;97.00
10901;DHT22;5503;53.208;10.392;2023-02-01T07:02:58;4.20;96.70
10901;DHT22;5503;53.208;10.392;2023-02-01T07:05:25;4.40;95.30
10901;DHT22;5503;53.208;10.392;2023-02-01T07:07:52;4.40;95.40
10901;DHT22;5503;53.208;10.392;2023-02-01T07:10:19;4.40;95.70
10901;DHT22;5503;53.208;10.392;2023-02-01T07:12:46;4.50;96.00
10901;DHT22;5503;53.208;10.392;2023-02-01T07:15:13;4.60;95.70
10901;DHT22;5503;53.208;10.392;2023-02-01T07:17:41;4.70;94.20
10901;DHT22;5503;53.208;10.392;2023-02-01T07:20:09;4.80;93.40
10901;DHT22;5503;53.208;10.392;2023-02-01T07:22:36;4.70;93.80
10901;DHT22;5503;53.208;10.392;2023-02-01T07:25:03;4.70;99.70
10901;DHT22;5503;53.208;10.392;2023-02-01T07:27:33;4.70;99.90
10901;DHT22;5503;53.208;10.392;2023-02-01T07:30:00;4.70;99.90
10901;DHT22;5503;53.208;10.392;2023-02-01T07:32:27;4.90;99.90
10901;DHT22;5503;53.208;10.392;2023-02-01T07:34:56;4.90;99.10
10901;DHT22;5503;53.208;10.392;2023-02-01T07:37:23;5.00;99.90
10901;DHT22;5503;53.208;10.392;2023-02-01T07:39:50;5.00;99.90
10901;DHT22;5503;53.208;10.392;2023-02-01T07:42:17;5.00;99.90
10901;DHT22;5503;53.208;10.392;2023-02-01T07:44:44;5.00;99.90
10901;DHT22;5503;53.208;10.392;2023-02-01T07:47:11;5.20;99.90
10901;DHT22;5503;53.208;10.392;2023-02-01T07:49:38;7.00;99.90
10901;DHT22;5503;53.208;10.392;2023-02-01T07:52:06;5.40;99.90
10901;DHT22;5503;53.208;10.392;2023-02-01T07:54:33;5.30;99.90
10901;DHT22;5503;53.208;10.392;2023-02-01T07:57:00;5.20;99.90
10901;DHT22;5503;53.208;10.392;2023-02-01T07:59:27;5.20;99.90
10901;DHT22;5503;53.208;10.392;2023-02-01T08:01:54;5.20;99.90
10901;DHT22;5503;53.208;10.392;2023-02-01T08:04:20;5.30;99.90
10901;DHT22;5503;53.208;10.392;2023-02-01T08:06:46;5.40;99.90
10901;DHT22;5503;53.208;10.392;2023-02-01T08:09:15;5.50;99.90
10901;DHT22;5503;53.208;10.392;2023-02-01T08:11:42;5.50;99.90
10901;DHT22;5503;53.208;10.392;2023-02-01T08:14:09;5.50;99.90
10901;DHT22;5503;53.208;10.392;2023-02-01T08:16:35;5.50;99.90
10901;DHT22;5503;53.208;10.392;2023-02-01T08:19:04;6.80;99.90
10901;DHT22;5503;53.208;10.392;2023-02-01T08:21:31;5.10;99.90
10901;DHT22;5503;53.208;10.392;2023-02-01T08:24:04;7.10;99.90
10901;DHT22;5503;53.208;10.392;2023-02-01T08:26:33;5.60;99.90
10901;DHT22;5503;53.208;10.392;2023-02-01T08:29:02;5.60;98.70
10901;DHT22;5503;53.208;10.392;2023-02-01T08:31:30;5.60;96.50
10901;DHT22;5503;53.208;10.392;2023-02-01T08:33:58;5.60;97.40
10901;DHT22;5503;53.208;10.392;2023-02-01T08:36:27;5.60;99.20
10901;DHT22;5503;53.208;10.392;2023-02-01T08:38:55;5.70;98.10
10901;DHT22;5503;53.208;10.392;2023-02-01T08:41:23;5.80;97.80
10901;DHT22;5503;53.208;10.392;2023-02-01T08:43:52;5.90;94.00
10901;DHT22;5503;53.208;10.392;2023-02-01T08:46:20;5.90;97.20
10901;DHT22;5503;53.208;10.392;2023-02-01T08:48:47;5.90;97.90
10901;DHT22;5503;53.208;10.392;2023-02-01T08:51:16;6.00;95.90
10901;DHT22;5503;53.208;10.392;2023-02-01T08:53:43;6.00;99.00
10901;DHT22;5503;53.208;10.392;2023-02-01T08:56:12;6.10;95.20
10901;DHT22;5503;53.208;10.392;2023-02-01T08:58:39;6.20;97.10
10901;DHT22;5503;53.208;10.392;2023-02-01T09:01:09;6.30;92.00
10901;DHT22;5503;53.208;10.392;2023-02-01T09:03:37;6.30;87.40
10901;DHT22;5503;53.208;10.392;2023-02-01T09:06:05;6.20;94.20
10901;DHT22;5503;53.208;10.392;2023-02-01T09:08:33;6.30;97.20
10901;DHT22;5503;53.208;10.392;2023-02-01T09:11:00;6.50;87.90
10901;DHT22;5503;53.208;10.392;2023-02-01T09:13:27;6.30;83.10
10901;DHT22;5503;53.208;10.392;2023-02-01T09:15:54;6.30;94.00
10901;DHT22;5503;53.208;10.392;2023-02-01T09:18:22;6.40;92.00
10901;DHT22;5503;53.208;10.392;2023-02-01T09:20:49;6.40;91.70
10901;DHT22;5503;53.208;10.392;2023-02-01T09:23:16;6.20;93.90
10901;DHT22;5503;53.208;10.392;2023-02-01T09:25:45;6.30;93.00
10901;DHT22;5503;53.208;10.392;2023-02-01T09:28:15;6.40;91.50
10901;DHT22;5503;53.208;10.392;2023-02-01T09:30:42;6.50;86.90
10901;DHT22;5503;53.208;10.392;2023-02-01T09:33:09;6.50;86.40
10901;DHT22;5503;53.208;10.392;2023-02-01T09:35:37;6.60;81.70
10901;DHT22;5503;53.208;10.392;2023-02-01T09:38:04;7.20;80.40
10901;DHT22;5503;53.208;10.392;2023-02-01T09:40:33;6.80;78.30
10901;DHT22;5503;53.208;10.392;2023-02-01T09:43:15;7.00;70.80
10901;DHT22;5503;53.208;10.392;2023-02-01T09:45:54;6.90;63.20
10901;DHT22;5503;53.208;10.392;2023-02-01T09:48:27;6.80;67.10
10901;DHT22;5503;53.208;10.392;2023-02-01T09:50:58;6.90;52.00
10901;DHT22;5503;53.208;10.392;2023-02-01T09:53:29;7.00;52.50
10901;DHT22;5503;53.208;10.392;2023-02-01T09:56:02;8.10;50.20
10901;DHT22;5503;53.208;10.392;2023-02-01T09:58:35;7.10;43.40
10901;DHT22;5503;53.208;10.392;2023-02-01T10:01:09;8.00;40.50
10901;DHT22;5503;53.208;10.392;2023-02-01T10:03:38;7.00;36.50
10901;DHT22;5503;53.208;10.392;2023-02-01T10:06:25;7.00;48.50
10901;DHT22;5503;53.208;10.392;2023-02-01T10:09:18;7.10;49.90
10901;DHT22;5503;53.208;10.392;2023-02-01T10:14:57;7.10;51.40
10901;DHT22;5503;53.208;10.392;2023-02-01T10:17:34;7.10;60.50
10901;DHT22;5503;53.208;10.392;2023-02-01T10:20:12;7.00;60.30
10901;DHT22;5503;53.208;10.392;2023-02-01T10:22:46;7.00;64.50
10901;DHT22;5503;53.208;10.392;2023-02-01T10:25:21;7.00;70.20
10901;DHT22;5503;53.208;10.392;2023-02-01T10:27:50;7.10;63.60
10901;DHT22;5503;53.208;10.392;2023-02-01T10:30:20;7.20;56.50
10901;DHT22;5503;53.208;10.392;2023-02-01T10:32:49;7.10;59.80
10901;DHT22;5503;53.208;10.392;2023-02-01T10:35:22;7.00;57.60
10901;DHT22;5503;53.208;10.392;2023-02-01T10:37:52;7.10;66.10
10901;DHT22;5503;53.208;10.392;2023-02-01T10:40:21;7.10;60.50
10901;DHT22;5503;53.208;10.392;2023-02-01T10:42:50;7.00;64.20
10901;DHT22;5503;53.208;10.392;2023-02-01T10:45:19;7.10;64.80
10901;DHT22;5503;53.208;10.392;2023-02-01T10:47:48;7.20;62.50
10901;DHT22;5503;53.208;10.392;2023-02-01T10:50:20;7.30;58.80
10901;DHT22;5503;53.208;10.392;2023-02-01T10:52:54;7.40;46.60
10901;DHT22;5503;53.208;10.392;2023-02-01T10:55:38;7.50;37.10
10901;DHT22;5503;53.208;10.392;2023-02-01T10:58:10;7.60;39.70
10901;DHT22;5503;53.208;10.392;2023-02-01T11:00:46;7.70;34.80
10901;DHT22;5503;53.208;10.392;2023-02-01T11:03:21;7.60;22.20
10901;DHT22;5503;53.208;10.392;2023-02-01T11:05:55;7.50;34.60
10901;DHT22;5503;53.208;10.392;2023-02-01T11:08:24;7.60;29.40
10901;DHT22;5503;53.208;10.392;2023-02-01T11:10:58;7.70;31.10
10901;DHT22;5503;53.208;10.392;2023-02-01T11:13:29;8.10;33.00
10901;DHT22;5503;53.208;10.392;2023-02-01T11:15:57;7.90;25.80
10901;DHT22;5503;53.208;10.392;2023-02-01T11:18:26;7.90;24.00
10901;DHT22;5503;53.208;10.392;2023-02-01T11:20:54;7.80;23.70
10901;DHT22;5503;53.208;10.392;2023-02-01T11:23:24;7.80;25.30
10901;DHT22;5503;53.208;10.392;2023-02-01T11:25:54;7.90;24.20
10901;DHT22;5503;53.208;10.392;2023-02-01T11:28:24;7.70;28.70
10901;DHT22;5503;53.208;10.392;2023-02-01T11:30:54;8.30;30.90
10901;DHT22;5503;53.208;10.392;2023-02-01T11:33:26;7.80;29.40
10901;DHT22;5503;53.208;10.392;2023-02-01T11:35:57;7.90;22.60
10901;DHT22;5503;53.208;10.392;2023-02-01T11:38:29;7.70;27.60
10901;DHT22;5503;53.208;10.392;2023-02-01T11:41:11;7.50;39.50
10901;DHT22;5503;53.208;10.392;2023-02-01T11:43:54;7.40;42.20
10901;DHT22;5503;53.208;10.392;2023-02-01T11:46:28;7.50;44.80
10901;DHT22;5503;53.208;10.392;2023-02-01T11:48:56;7.60;35.10
10901;DHT22;5503;53.208;10.392;2023-02-01T11:51:40;7.60;33.00
10901;DHT22;5503;53.208;10.392;2023-02-01T11:54:21;7.40;36.90
10901;DHT22;5503;53.208;10.392;2023-02-01T11:57:00;7.20;46.30
10901;DHT22;5503;53.208;10.392;2023-02-01T11:59:54;7.30;46.20
10901;DHT22;5503;53.208;10.392;2023-02-01T12:05:27;9.00;55.30
10901;DHT22;5503;53.208;10.392;2023-02-01T12:08:07;7.30;48.80
10901;DHT22;5503;53.208;10.392;2023-02-01T12:10:47;7.40;41.90
10901;DHT22;5503;53.208;10.392;2023-02-01T12:13:24;7.20;46.10
10901;DHT22;5503;53.208;10.392;2023-02-01T12:16:02;7.20;43.40
10901;DHT22;5503;53.208;10.392;2023-02-01T12:22:19;7.20;52.40
10901;DHT22;5503;53.208;10.392;2023-02-01T12:25:06;6.90;46.70
10901;DHT22;5503;53.208;10.392;2023-02-01T12:27:59;6.80;68.30
10901;DHT22;5503;53.208;10.392;2023-02-01T12:30:44;6.70;70.50
10901;DHT22;5503;53.208;10.392;2023-02-01T12:33:20;6.50;64.70
10901;DHT22;5503;53.208;10.392;2023-02-01T12:36:01;6.20;81.40
10901;DHT22;5503;53.208;10.392;2023-02-01T12:38:42;6.10;91.90
10901;DHT22;5503;53.208;10.392;2023-02-01T12:41:30;6.10;91.20
10901;DHT22;5503;53.208;10.392;2023-02-01T12:44:04;5.80;93.40
10901;DHT22;5503;53.208;10.392;2023-02-01T12:46:39;5.70;96.60
10901;DHT22;5503;53.208;10.392;2023-02-01T12:49:11;5.90;94.60
10901;DHT22;5503;53.208;10.392;2023-02-01T12:51:44;5.90;94.80
10901;DHT22;5503;53.208;10.392;2023-02-01T12:54:15;5.90;93.20
10901;DHT22;5503;53.208;10.392;2023-02-01T12:56:49;5.80;96.30
10901;DHT22;5503;53.208;10.392;2023-02-01T12:59:22;5.80;96.40
10901;DHT22;5503;53.208;10.392;2023-02-01T13:01:54;5.80;96.50
10901;DHT22;5503;53.208;10.392;2023-02-01T13:04:29;5.70;94.60
10901;DHT22;5503;53.208;10.392;2023-02-01T13:07:03;5.60;99.10
10901;DHT22;5503;53.208;10.392;2023-02-01T13:09:37;5.60;95.20
10901;DHT22;5503;53.208;10.392;2023-02-01T13:12:11;5.50;95.70
10901;DHT22;5503;53.208;10.392;2023-02-01T13:14:44;5.20;92.20
10901;DHT22;5503;53.208;10.392;2023-02-01T13:17:15;4.90;94.80
10901;DHT22;5503;53.208;10.392;2023-02-01T13:19:46;4.70;95.50
10901;DHT22;5503;53.208;10.392;2023-02-01T13:22:19;4.60;99.90
10901;DHT22;5503;53.208;10.392;2023-02-01T13:24:50;4.50;99.90
10901;DHT22;5503;53.208;10.392;2023-02-01T13:27:18;4.30;99.40
10901;DHT22;5503;53.208;10.392;2023-02-01T13:29:54;4.10;99.90
10901;DHT22;5503;53.208;10.392;2023-02-01T13:32:41;4.20;99.90
10901;DHT22;5503;53.208;10.392;2023-02-01T13:35:30;4.40;95.70
10901;DHT22;5503;53.208;10.392;2023-02-01T13:41:11;4.30;96.20
10901;DHT22;5503;53.208;10.392;2023-02-01T13:43:43;4.20;99.90
10901;DHT22;5503;53.208;10.392;2023-02-01T13:46:12;4.40;99.90
10901;DHT22;5503;53.208;10.392;2023-02-01T13:48:46;4.60;97.40
10901;DHT22;5503;53.208;10.392;2023-02-01T13:51:15;4.70;99.90
10901;DHT22;5503;53.208;10.392;2023-02-01T13:53:46;4.70;99.90
10901;DHT22;5503;53.208;10.392;2023-02-01T13:56:17;4.80;99.90
10901;DHT22;5503;53.208;10.392;2023-02-01T13:58:45;4.80;95.70
10901;DHT22;5503;53.208;10.392;2023-02-01T14:01:34;4.90;96.60
10901;DHT22;5503;53.208;10.392;2023-02-01T14:04:03;4.90;89.80
10901;DHT22;5503;53.208;10.392;2023-02-01T14:06:41;5.20;85.70
10901;DHT22;5503;53.208;10.392;2023-02-01T14:09:18;7.40;83.80
10901;DHT22;5503;53.208;10.392;2023-02-01T14:11:48;5.00;88.40
10901;DHT22;5503;53.208;10.392;2023-02-01T14:14:43;4.90;93.00
10901;DHT22;5503;53.208;10.392;2023-02-01T14:17:37;5.00;94.00
10901;DHT22;5503;53.208;10.392;2023-02-01T14:23:27;4.90;90.90
10901;DHT22;5503;53.208;10.392;2023-02-01T14:26:11;4.80;92.60
10901;DHT22;5503;53.208;10.392;2023-02-01T14:28:56;4.80;92.70
10901;DHT22;5503;53.208;10.392;2023-02-01T14:31:40;4.90;93.90
10901;DHT22;5503;53.208;10.392;2023-02-01T14:34:16;6.30;94.10
10901;DHT22;5503;53.208;10.392;2023-02-01T14:36:47;4.80;94.90
10901;DHT22;5503;53.208;10.392;2023-02-01T14:39:27;4.90;94.90
10901;DHT22;5503;53.208;10.392;2023-02-01T14:41:58;5.00;90.70
10901;DHT22;5503;53.208;10.392;2023-02-01T14:44:29;5.10;91.10
10901;DHT22;5503;53.208;10.392;2023-02-01T14:47:10;5.20;87.30
10901;DHT22;5503;53.208;10.392;2023-02-01T14:49:47;5.20;87.00
10901;DHT22;5503;53.208;10.392;2023-02-01T14:52:19;5.20;90.80
10901;DHT22;5503;53.208;10.392;2023-02-01T14:54:53;5.30;84.70
10901;DHT22;5503;53.208;10.392;2023-02-01T14:57:23;5.30;82.50
10901;DHT22;5503;53.208;10.392;2023-02-01T14:59:57;5.40;81.40
10901;DHT22;5503;53.208;10.392;2023-02-01T15:02:27;5.30;87.40
10901;DHT22;5503;53.208;10.392;2023-02-01T15:04:57;5.10;93.70
10901;DHT22;5503;53.208;10.392;2023-02-01T15:07:25;4.80;99.90
10901;DHT22;5503;53.208;10.392;2023-02-01T15:09:56;4.60;99.90
10901;DHT22;5503;53.208;10.392;2023-02-01T15:12:26;4.60;99.90
10901;DHT22;5503;53.208;10.392;2023-02-01T15:15:13;4.50;99.90
10901;DHT22;5503;53.208;10.392;2023-02-01T15:17:49;4.30;99.90
10901;DHT22;5503;53.208;10.392;2023-02-01T15:20:20;4.10;99.90
10901;DHT22;5503;53.208;10.392;2023-02-01T15:22:58;4.20;99.90
10901;DHT22;5503;53.208;10.392;2023-02-01T15:25:28;4.30;99.90
10901;DHT22;5503;53.208;10.392;2023-02-01T15:27:56;4.40;99.90
10901;DHT22;5503;53.208;10.392;2023-02-01T15:30:25;4.50;99.90
10901;DHT22;5503;53.208;10.392;2023-02-01T15:33:05;4.50;99.90
10901;DHT22;5503;53.208;10.392;2023-02-01T15:35:39;4.50;99.90
10901;DHT22;5503;53.208;10.392;2023-02-01T15:38:19;4.70;99.90
10901;DHT22;5503;53.208;10.392;2023-02-01T15:40:54;4.60;99.90
10901;DHT22;5503;53.208;10.392;2023-02-01T15:43:21;4.70;99.90
10901;DHT22;5503;53.208;10.392;2023-02-01T15:45:48;5.70;99.90
10901;DHT22;5503;53.208;10.392;2023-02-01T15:48:21;4.70;99.90
10901;DHT22;5503;53.208;10.392;2023-02-01T15:50:50;4.80;99.90
10901;DHT22;5503;53.208;10.392;2023-02-01T15:53:20;4.90;99.00
10901;DHT22;5503;53.208;10.392;2023-02-01T15:55:52;5.00;94.20
10901;DHT22;5503;53.208;10.392;2023-02-01T15:58:22;5.10;90.40
10901;DHT22;5503;53.208;10.392;2023-02-01T16:00:51;5.10;88.00
10901;DHT22;5503;53.208;10.392;2023-02-01T16:03:28;5.00;90.40
10901;DHT22;5503;53.208;10.392;2023-02-01T16:05:58;5.10;90.50
10901;DHT22;5503;53.208;10.392;2023-02-01T16:08:27;5.20;90.60
10901;DHT22;5503;53.208;10.392;2023-02-01T16:11:00;5.10;87.30
10901;DHT22;5503;53.208;10.392;2023-02-01T16:13:28;5.20;82.70
10901;DHT22;5503;53.208;10.392;2023-02-01T16:15:54;5.20;78.90
10901;DHT22;5503;53.208;10.392;2023-02-01T16:18:21;5.20;77.10
10901;DHT22;5503;53.208;10.392;2023-02-01T16:20:48;5.20;78.80
10901;DHT22;5503;53.208;10.392;2023-02-01T16:23:16;5.20;77.50
10901;DHT22;5503;53.208;10.392;2023-02-01T16:25:46;5.30;78.20
10901;DHT22;5503;53.208;10.392;2023-02-01T16:28:13;5.30;75.80
10901;DHT22;5503;53.208;10.392;2023-02-01T16:30:40;5.30;75.40
10901;DHT22;5503;53.208;10.392;2023-02-01T16:33:13;5.40;77.30
10901;DHT22;5503;53.208;10.392;2023-02-01T16:35:43;5.40;72.80
10901;DHT22;5503;53.208;10.392;2023-02-01T16:38:12;5.30;71.90